sensor_id;sensor_type;location;lat;lon;timestamp;P1;durP1;ratioP1;P2;durP2;ratioP2
67554;SDS011;54385;53.516;49.456;2023-07-20T00:02:10;0.77;;;0.70;;
67554;SDS011;54385;53.516;49.456;2023-07-20T00:04:37;0.98;;;0.52;;
67554;SDS011;54385;53.516;49.456;2023-07-20T00:07:03;1.20;;;0.70;;
67554;SDS011;54385;53.516;49.456;2023-07-20T00:09:30;0.60;;;0.60;;
67554;SDS011;54385;53.516;49.456;2023-07-20T00:11:56;0.82;;;0.63;;
67554;SDS011;54385;53.516;49.456;2023-07-20T00:14:25;1.77;;;0.63;;
67554;SDS011;54385;53.516;49.456;2023-07-20T00:16:52;0.90;;;0.60;;
67554;SDS011;54385;53.516;49.456;2023-07-20T00:19:27;1.02;;;0.68;;
67554;SDS011;54385;53.516;49.456;2023-07-20T00:21:54;0.63;;;0.55;;
67554;SDS011;54385;53.516;49.456;2023-07-20T00:24:21;1.38;;;0.63;;
67554;SDS011;54385;53.516;49.456;2023-07-20T00:26:47;0.63;;;0.60;;
67554;SDS011;54385;53.516;49.456;2023-07-20T00:29:14;0.93;;;0.68;;
67554;SDS011;54385;53.516;49.456;2023-07-20T00:31:40;0.63;;;0.63;;
67554;SDS011;54385;53.516;49.456;2023-07-20T00:34:09;1.13;;;0.80;;
67554;SDS011;54385;53.516;49.456;2023-07-20T00:36:36;0.88;;;0.70;;
67554;SDS011;54385;53.516;49.456;2023-07-20T00:39:03;0.77;;;0.70;;
67554;SDS011;54385;53.516;49.456;2023-07-20T00:41:29;0.90;;;0.68;;
67554;SDS011;54385;53.516;49.456;2023-07-20T00:43:57;0.90;;;0.80;;
67554;SDS011;54385;53.516;49.456;2023-07-20T00:46:24;0.98;;;0.77;;
67554;SDS011;54385;53.516;49.456;2023-07-20T00:48:51;0.90;;;0.70;;
67554;SDS011;54385;53.516;49.456;2023-07-20T00:51:20;0.70;;;0.57;;
67554;SDS011;54385;53.516;49.456;2023-07-20T00:53:47;0.57;;;0.50;;
67554;SDS011;54385;53.516;49.456;2023-07-20T00:56:14;0.85;;;0.80;;
67554;SDS011;54385;53.516;49.456;2023-07-20T00:58:41;2.10;;;0.65;;
67554;SDS011;54385;53.516;49.456;2023-07-20T01:01:07;0.70;;;0.70;;
67554;SDS011;54385;53.516;49.456;2023-07-20T01:03:34;0.60;;;0.50;;
67554;SDS011;54385;53.516;49.456;2023-07-20T01:06:04;1.08;;;0.70;;
67554;SDS011;54385;53.516;49.456;2023-07-20T01:09:02;0.98;;;0.60;;
67554;SDS011;54385;53.516;49.456;2023-07-20T01:14:11;0.80;;;0.70;;
67554;SDS011;54385;53.516;49.456;2023-07-20T01:16:40;0.80;;;0.73;;
67554;SDS011;54385;53.516;49.456;2023-07-20T01:19:06;0.60;;;0.57;;
67554;SDS011;54385;53.516;49.456;2023-07-20T01:30:50;0.77;;;0.60;;
67554;SDS011;54385;53.516;49.456;2023-07-20T01:35:46;0.73;;;0.65;;
67554;SDS011;54385;53.516;49.456;2023-07-20T01:38:16;0.90;;;0.70;;
67554;SDS011;54385;53.516;49.456;2023-07-20T01:40:45;0.68;;;0.60;;
67554;SDS011;54385;53.516;49.456;2023-07-20T01:43:12;0.98;;;0.68;;
67554;SDS011;54385;53.516;49.456;2023-07-20T01:45:39;1.00;;;0.50;;
67554;SDS011;54385;53.516;49.456;2023-07-20T01:48:05;1.30;;;0.70;;
67554;SDS011;54385;53.516;49.456;2023-07-20T01:50:32;0.50;;;0.50;;
67554;SDS011;54385;53.516;49.456;2023-07-20T01:53:00;1.15;;;0.63;;
67554;SDS011;54385;53.516;49.456;2023-07-20T01:55:27;0.93;;;0.57;;
67554;SDS011;54385;53.516;49.456;2023-07-20T01:57:54;0.52;;;0.52;;
67554;SDS011;54385;53.516;49.456;2023-07-20T02:00:21;0.65;;;0.55;;
67554;SDS011;54385;53.516;49.456;2023-07-20T02:02:50;0.70;;;0.60;;
67554;SDS011;54385;53.516;49.456;2023-07-20T02:05:16;2.00;;;0.70;;
67554;SDS011;54385;53.516;49.456;2023-07-20T02:07:43;0.80;;;0.70;;
67554;SDS011;54385;53.516;49.456;2023-07-20T02:10:09;0.88;;;0.70;;
67554;SDS011;54385;53.516;49.456;2023-07-20T02:12:36;1.00;;;0.70;;
67554;SDS011;54385;53.516;49.456;2023-07-20T02:15:03;0.70;;;0.68;;
67554;SDS011;54385;53.516;49.456;2023-07-20T02:17:29;0.90;;;0.70;;
67554;SDS011;54385;53.516;49.456;2023-07-20T02:19:56;1.13;;;0.80;;
67554;SDS011;54385;53.516;49.456;2023-07-20T02:22:25;1.08;;;0.70;;
67554;SDS011;54385;53.516;49.456;2023-07-20T02:24:53;1.23;;;0.70;;
67554;SDS011;54385;53.516;49.456;2023-07-20T02:27:19;0.63;;;0.63;;
67554;SDS011;54385;53.516;49.456;2023-07-20T02:29:46;0.88;;;0.68;;
67554;SDS011;54385;53.516;49.456;2023-07-20T02:32:13;0.90;;;0.60;;
67554;SDS011;54385;53.516;49.456;2023-07-20T02:34:39;0.95;;;0.60;;
67554;SDS011;54385;53.516;49.456;2023-07-20T02:37:06;0.50;;;0.50;;
67554;SDS011;54385;53.516;49.456;2023-07-20T02:39:32;1.05;;;0.70;;
67554;SDS011;54385;53.516;49.456;2023-07-20T02:41:59;0.70;;;0.70;;
67554;SDS011;54385;53.516;49.456;2023-07-20T02:44:25;1.05;;;0.73;;
67554;SDS011;54385;53.516;49.456;2023-07-20T02:46:52;0.60;;;0.60;;
67554;SDS011;54385;53.516;49.456;2023-07-20T02:49:18;0.73;;;0.60;;
67554;SDS011;54385;53.516;49.456;2023-07-20T02:51:45;0.90;;;0.60;;
67554;SDS011;54385;53.516;49.456;2023-07-20T02:54:12;1.17;;;0.70;;
67554;SDS011;54385;53.516;49.456;2023-07-20T02:56:38;0.80;;;0.57;;
67554;SDS011;54385;53.516;49.456;2023-07-20T02:59:04;0.55;;;0.50;;
67554;SDS011;54385;53.516;49.456;2023-07-20T03:01:31;0.70;;;0.65;;
67554;SDS011;54385;53.516;49.456;2023-07-20T03:03:57;1.10;;;0.70;;
67554;SDS011;54385;53.516;49.456;2023-07-20T03:06:24;0.90;;;0.80;;
67554;SDS011;54385;53.516;49.456;2023-07-20T03:08:50;0.70;;;0.70;;
67554;SDS011;54385;53.516;49.456;2023-07-20T03:11:19;0.95;;;0.65;;
67554;SDS011;54385;53.516;49.456;2023-07-20T03:13:46;0.90;;;0.68;;
67554;SDS011;54385;53.516;49.456;2023-07-20T03:16:14;0.90;;;0.73;;
67554;SDS011;54385;53.516;49.456;2023-07-20T03:18:43;1.27;;;0.73;;
67554;SDS011;54385;53.516;49.456;2023-07-20T03:21:10;0.80;;;0.75;;
67554;SDS011;54385;53.516;49.456;2023-07-20T03:23:38;1.42;;;0.65;;
67554;SDS011;54385;53.516;49.456;2023-07-20T03:26:05;2.30;;;0.70;;
67554;SDS011;54385;53.516;49.456;2023-07-20T03:28:35;1.95;;;0.80;;
67554;SDS011;54385;53.516;49.456;2023-07-20T03:31:02;2.70;;;0.88;;
67554;SDS011;54385;53.516;49.456;2023-07-20T03:33:29;2.05;;;1.00;;
67554;SDS011;54385;53.516;49.456;2023-07-20T03:35:56;1.40;;;1.00;;
67554;SDS011;54385;53.516;49.456;2023-07-20T03:38:24;2.35;;;1.10;;
67554;SDS011;54385;53.516;49.456;2023-07-20T03:40:51;1.52;;;1.10;;
67554;SDS011;54385;53.516;49.456;2023-07-20T03:43:20;3.20;;;1.10;;
67554;SDS011;54385;53.516;49.456;2023-07-20T03:45:49;1.95;;;0.95;;
67554;SDS011;54385;53.516;49.456;2023-07-20T03:48:18;1.35;;;0.90;;
67554;SDS011;54385;53.516;49.456;2023-07-20T03:50:48;2.90;;;1.05;;
67554;SDS011;54385;53.516;49.456;2023-07-20T03:53:16;3.80;;;1.35;;
67554;SDS011;54385;53.516;49.456;2023-07-20T03:55:50;3.95;;;1.17;;
67554;SDS011;54385;53.516;49.456;2023-07-20T03:58:17;1.95;;;0.93;;
67554;SDS011;54385;53.516;49.456;2023-07-20T04:00:49;3.60;;;1.20;;
67554;SDS011;54385;53.516;49.456;2023-07-20T04:03:16;2.42;;;1.35;;
67554;SDS011;54385;53.516;49.456;2023-07-20T04:05:43;2.85;;;1.20;;
67554;SDS011;54385;53.516;49.456;2023-07-20T04:08:13;4.20;;;1.52;;
67554;SDS011;54385;53.516;49.456;2023-07-20T04:10:44;5.07;;;1.70;;
67554;SDS011;54385;53.516;49.456;2023-07-20T04:13:14;3.00;;;1.48;;
67554;SDS011;54385;53.516;49.456;2023-07-20T04:15:42;2.47;;;1.30;;
67554;SDS011;54385;53.516;49.456;2023-07-20T04:18:08;3.90;;;1.30;;
67554;SDS011;54385;53.516;49.456;2023-07-20T04:20:35;5.18;;;1.73;;
67554;SDS011;54385;53.516;49.456;2023-07-20T04:23:03;3.85;;;1.38;;
67554;SDS011;54385;53.516;49.456;2023-07-20T04:25:29;4.53;;;1.23;;
67554;SDS011;54385;53.516;49.456;2023-07-20T04:28:05;3.42;;;1.83;;
67554;SDS011;54385;53.516;49.456;2023-07-20T04:30:40;3.13;;;1.30;;
67554;SDS011;54385;53.516;49.456;2023-07-20T04:33:06;4.03;;;1.67;;
67554;SDS011;54385;53.516;49.456;2023-07-20T04:35:50;2.97;;;1.45;;
67554;SDS011;54385;53.516;49.456;2023-07-20T04:38:20;3.95;;;1.55;;
67554;SDS011;54385;53.516;49.456;2023-07-20T04:40:50;4.25;;;1.50;;
67554;SDS011;54385;53.516;49.456;2023-07-20T04:43:18;2.92;;;1.65;;
67554;SDS011;54385;53.516;49.456;2023-07-20T04:45:49;3.38;;;1.65;;
67554;SDS011;54385;53.516;49.456;2023-07-20T04:48:19;5.05;;;1.75;;
67554;SDS011;54385;53.516;49.456;2023-07-20T04:50:48;3.45;;;1.80;;
67554;SDS011;54385;53.516;49.456;2023-07-20T04:53:17;4.28;;;2.00;;
67554;SDS011;54385;53.516;49.456;2023-07-20T04:55:47;2.80;;;1.60;;
67554;SDS011;54385;53.516;49.456;2023-07-20T04:58:22;2.70;;;1.65;;
67554;SDS011;54385;53.516;49.456;2023-07-20T05:00:49;2.42;;;1.65;;
67554;SDS011;54385;53.516;49.456;2023-07-20T05:03:19;2.65;;;1.70;;
67554;SDS011;54385;53.516;49.456;2023-07-20T05:05:46;3.22;;;1.55;;
67554;SDS011;54385;53.516;49.456;2023-07-20T05:08:14;3.97;;;1.73;;
67554;SDS011;54385;53.516;49.456;2023-07-20T05:10:45;3.00;;;1.88;;
67554;SDS011;54385;53.516;49.456;2023-07-20T05:13:20;4.22;;;1.63;;
67554;SDS011;54385;53.516;49.456;2023-07-20T05:15:50;3.38;;;1.80;;
67554;SDS011;54385;53.516;49.456;2023-07-20T05:18:20;3.95;;;1.50;;
67554;SDS011;54385;53.516;49.456;2023-07-20T05:20:47;4.07;;;2.00;;
67554;SDS011;54385;53.516;49.456;2023-07-20T05:23:14;3.55;;;2.28;;
67554;SDS011;54385;53.516;49.456;2023-07-20T05:28:12;3.53;;;1.90;;
67554;SDS011;54385;53.516;49.456;2023-07-20T05:30:39;4.78;;;1.73;;
67554;SDS011;54385;53.516;49.456;2023-07-20T05:33:06;4.20;;;2.00;;
67554;SDS011;54385;53.516;49.456;2023-07-20T05:35:32;3.65;;;1.85;;
67554;SDS011;54385;53.516;49.456;2023-07-20T05:37:59;3.67;;;2.13;;
67554;SDS011;54385;53.516;49.456;2023-07-20T05:40:25;2.42;;;1.88;;
67554;SDS011;54385;53.516;49.456;2023-07-20T05:42:52;5.30;;;2.35;;
67554;SDS011;54385;53.516;49.456;2023-07-20T05:45:19;5.40;;;2.08;;
67554;SDS011;54385;53.516;49.456;2023-07-20T05:47:46;2.45;;;1.77;;
67554;SDS011;54385;53.516;49.456;2023-07-20T05:50:12;4.75;;;2.47;;
67554;SDS011;54385;53.516;49.456;2023-07-20T05:52:39;2.70;;;1.88;;
67554;SDS011;54385;53.516;49.456;2023-07-20T05:55:06;4.53;;;2.30;;
67554;SDS011;54385;53.516;49.456;2023-07-20T05:57:33;3.88;;;2.00;;
67554;SDS011;54385;53.516;49.456;2023-07-20T06:00:00;2.92;;;2.03;;
67554;SDS011;54385;53.516;49.456;2023-07-20T06:02:27;3.30;;;2.08;;
67554;SDS011;54385;53.516;49.456;2023-07-20T06:04:54;4.47;;;1.88;;
67554;SDS011;54385;53.516;49.456;2023-07-20T06:07:23;4.78;;;2.10;;
67554;SDS011;54385;53.516;49.456;2023-07-20T06:09:49;3.30;;;1.85;;
67554;SDS011;54385;53.516;49.456;2023-07-20T06:12:16;4.32;;;2.10;;
67554;SDS011;54385;53.516;49.456;2023-07-20T06:14:42;6.53;;;2.10;;
67554;SDS011;54385;53.516;49.456;2023-07-20T06:17:09;3.63;;;2.13;;
67554;SDS011;54385;53.516;49.456;2023-07-20T06:19:35;3.33;;;2.20;;
67554;SDS011;54385;53.516;49.456;2023-07-20T06:22:04;2.67;;;2.00;;
67554;SDS011;54385;53.516;49.456;2023-07-20T06:24:31;3.58;;;1.85;;
67554;SDS011;54385;53.516;49.456;2023-07-20T06:26:57;4.07;;;1.88;;
67554;SDS011;54385;53.516;49.456;2023-07-20T06:29:25;3.15;;;1.70;;
67554;SDS011;54385;53.516;49.456;2023-07-20T06:31:51;2.20;;;1.70;;
67554;SDS011;54385;53.516;49.456;2023-07-20T06:34:18;3.50;;;2.17;;
67554;SDS011;54385;53.516;49.456;2023-07-20T06:36:45;4.63;;;1.80;;
67554;SDS011;54385;53.516;49.456;2023-07-20T06:39:11;3.03;;;1.73;;
67554;SDS011;54385;53.516;49.456;2023-07-20T06:41:38;1.73;;;1.58;;
67554;SDS011;54385;53.516;49.456;2023-07-20T06:44:08;4.00;;;1.75;;
67554;SDS011;54385;53.516;49.456;2023-07-20T06:46:34;2.72;;;1.70;;
67554;SDS011;54385;53.516;49.456;2023-07-20T06:49:06;4.30;;;1.98;;
67554;SDS011;54385;53.516;49.456;2023-07-20T06:51:36;5.68;;;2.08;;
67554;SDS011;54385;53.516;49.456;2023-07-20T06:54:03;3.60;;;1.92;;
67554;SDS011;54385;53.516;49.456;2023-07-20T06:56:30;2.25;;;1.50;;
67554;SDS011;54385;53.516;49.456;2023-07-20T06:58:56;2.63;;;1.55;;
67554;SDS011;54385;53.516;49.456;2023-07-20T07:04:15;3.00;;;1.85;;
67554;SDS011;54385;53.516;49.456;2023-07-20T07:06:41;4.43;;;1.52;;
67554;SDS011;54385;53.516;49.456;2023-07-20T07:09:08;2.03;;;1.60;;
67554;SDS011;54385;53.516;49.456;2023-07-20T07:11:35;2.50;;;1.67;;
67554;SDS011;54385;53.516;49.456;2023-07-20T07:14:01;2.58;;;1.70;;
67554;SDS011;54385;53.516;49.456;2023-07-20T07:16:28;2.38;;;1.70;;
67554;SDS011;54385;53.516;49.456;2023-07-20T07:18:54;2.88;;;1.70;;
67554;SDS011;54385;53.516;49.456;2023-07-20T07:21:21;2.20;;;1.58;;
67554;SDS011;54385;53.516;49.456;2023-07-20T07:23:47;2.50;;;1.50;;
67554;SDS011;54385;53.516;49.456;2023-07-20T07:26:15;1.83;;;1.20;;
67554;SDS011;54385;53.516;49.456;2023-07-20T07:28:44;1.85;;;1.40;;
67554;SDS011;54385;53.516;49.456;2023-07-20T07:31:12;1.67;;;1.50;;
67554;SDS011;54385;53.516;49.456;2023-07-20T07:33:38;3.13;;;1.30;;
67554;SDS011;54385;53.516;49.456;2023-07-20T07:36:05;2.72;;;1.40;;
67554;SDS011;54385;53.516;49.456;2023-07-20T07:38:31;1.95;;;1.30;;
67554;SDS011;54385;53.516;49.456;2023-07-20T07:41:01;3.30;;;2.13;;
67554;SDS011;54385;53.516;49.456;2023-07-20T07:43:28;1.73;;;1.33;;
67554;SDS011;54385;53.516;49.456;2023-07-20T07:45:56;3.55;;;1.67;;
67554;SDS011;54385;53.516;49.456;2023-07-20T07:48:23;1.88;;;1.45;;
67554;SDS011;54385;53.516;49.456;2023-07-20T07:50:51;2.60;;;1.52;;
67554;SDS011;54385;53.516;49.456;2023-07-20T07:53:17;3.25;;;1.38;;
67554;SDS011;54385;53.516;49.456;2023-07-20T07:55:44;2.13;;;1.60;;
67554;SDS011;54385;53.516;49.456;2023-07-20T07:58:10;2.38;;;1.83;;
67554;SDS011;54385;53.516;49.456;2023-07-20T08:00:37;2.95;;;1.50;;
67554;SDS011;54385;53.516;49.456;2023-07-20T08:03:03;1.90;;;1.50;;
67554;SDS011;54385;53.516;49.456;2023-07-20T08:05:34;2.85;;;1.42;;
67554;SDS011;54385;53.516;49.456;2023-07-20T08:08:03;3.03;;;1.33;;
67554;SDS011;54385;53.516;49.456;2023-07-20T08:10:30;3.92;;;1.42;;
67554;SDS011;54385;53.516;49.456;2023-07-20T08:12:57;2.80;;;1.13;;
67554;SDS011;54385;53.516;49.456;2023-07-20T08:15:24;1.92;;;1.33;;
67554;SDS011;54385;53.516;49.456;2023-07-20T08:17:50;3.33;;;1.35;;
67554;SDS011;54385;53.516;49.456;2023-07-20T08:20:20;1.58;;;1.20;;
67554;SDS011;54385;53.516;49.456;2023-07-20T08:22:52;1.92;;;1.08;;
67554;SDS011;54385;53.516;49.456;2023-07-20T08:25:23;2.92;;;1.58;;
67554;SDS011;54385;53.516;49.456;2023-07-20T08:27:51;2.28;;;1.30;;
67554;SDS011;54385;53.516;49.456;2023-07-20T08:30:20;2.28;;;1.38;;
67554;SDS011;54385;53.516;49.456;2023-07-20T08:32:47;3.53;;;1.30;;
67554;SDS011;54385;53.516;49.456;2023-07-20T08:35:14;2.60;;;1.27;;
67554;SDS011;54385;53.516;49.456;2023-07-20T08:37:41;2.47;;;1.13;;
67554;SDS011;54385;53.516;49.456;2023-07-20T08:40:08;2.38;;;1.10;;
67554;SDS011;54385;53.516;49.456;2023-07-20T08:42:35;2.30;;;1.20;;
67554;SDS011;54385;53.516;49.456;2023-07-20T08:45:05;3.58;;;1.80;;
67554;SDS011;54385;53.516;49.456;2023-07-20T08:47:34;1.33;;;1.05;;
67554;SDS011;54385;53.516;49.456;2023-07-20T08:50:02;2.53;;;1.58;;
67554;SDS011;54385;53.516;49.456;2023-07-20T08:52:32;3.25;;;1.30;;
67554;SDS011;54385;53.516;49.456;2023-07-20T08:55:00;2.65;;;1.23;;
67554;SDS011;54385;53.516;49.456;2023-07-20T08:57:30;2.53;;;1.00;;
67554;SDS011;54385;53.516;49.456;2023-07-20T09:00:02;2.65;;;1.13;;
67554;SDS011;54385;53.516;49.456;2023-07-20T09:02:38;3.38;;;1.13;;
67554;SDS011;54385;53.516;49.456;2023-07-20T09:05:09;2.40;;;0.93;;
67554;SDS011;54385;53.516;49.456;2023-07-20T09:07:35;2.78;;;1.30;;
67554;SDS011;54385;53.516;49.456;2023-07-20T09:10:03;2.90;;;1.42;;
67554;SDS011;54385;53.516;49.456;2023-07-20T09:12:32;3.58;;;1.27;;
67554;SDS011;54385;53.516;49.456;2023-07-20T09:15:01;3.63;;;1.30;;
67554;SDS011;54385;53.516;49.456;2023-07-20T09:17:30;1.67;;;1.00;;
67554;SDS011;54385;53.516;49.456;2023-07-20T09:19:56;2.50;;;1.17;;
67554;SDS011;54385;53.516;49.456;2023-07-20T09:22:30;1.75;;;1.10;;
67554;SDS011;54385;53.516;49.456;2023-07-20T09:24:57;2.75;;;1.20;;
67554;SDS011;54385;53.516;49.456;2023-07-20T09:27:44;1.77;;;1.08;;
67554;SDS011;54385;53.516;49.456;2023-07-20T09:30:13;3.10;;;1.20;;
67554;SDS011;54385;53.516;49.456;2023-07-20T09:32:42;1.52;;;1.00;;
67554;SDS011;54385;53.516;49.456;2023-07-20T09:35:17;2.70;;;0.90;;
67554;SDS011;54385;53.516;49.456;2023-07-20T09:37:59;1.33;;;0.98;;
67554;SDS011;54385;53.516;49.456;2023-07-20T09:40:27;1.88;;;1.00;;
67554;SDS011;54385;53.516;49.456;2023-07-20T09:42:54;2.05;;;1.02;;
67554;SDS011;54385;53.516;49.456;2023-07-20T09:45:33;1.80;;;0.95;;
67554;SDS011;54385;53.516;49.456;2023-07-20T09:48:04;2.72;;;0.93;;
67554;SDS011;54385;53.516;49.456;2023-07-20T09:50:41;3.42;;;1.20;;
67554;SDS011;54385;53.516;49.456;2023-07-20T09:53:14;4.85;;;1.30;;
67554;SDS011;54385;53.516;49.456;2023-07-20T09:55:47;5.20;;;1.00;;
67554;SDS011;54385;53.516;49.456;2023-07-20T09:58:14;2.50;;;1.08;;
67554;SDS011;54385;53.516;49.456;2023-07-20T10:00:41;2.28;;;0.88;;
67554;SDS011;54385;53.516;49.456;2023-07-20T10:03:18;1.40;;;0.90;;
67554;SDS011;54385;53.516;49.456;2023-07-20T10:06:08;2.90;;;0.93;;
67554;SDS011;54385;53.516;49.456;2023-07-20T10:08:35;3.45;;;1.10;;
67554;SDS011;54385;53.516;49.456;2023-07-20T10:11:07;3.05;;;0.90;;
67554;SDS011;54385;53.516;49.456;2023-07-20T10:13:37;2.25;;;1.08;;
67554;SDS011;54385;53.516;49.456;2023-07-20T10:16:11;2.13;;;0.98;;
67554;SDS011;54385;53.516;49.456;2023-07-20T10:18:51;2.95;;;1.08;;
67554;SDS011;54385;53.516;49.456;2023-07-20T10:21:39;4.85;;;1.10;;
67554;SDS011;54385;53.516;49.456;2023-07-20T10:24:08;2.65;;;1.10;;
67554;SDS011;54385;53.516;49.456;2023-07-20T10:26:38;3.15;;;0.90;;
67554;SDS011;54385;53.516;49.456;2023-07-20T10:29:05;2.55;;;0.90;;
67554;SDS011;54385;53.516;49.456;2023-07-20T10:31:33;3.38;;;1.10;;
67554;SDS011;54385;53.516;49.456;2023-07-20T10:34:05;2.13;;;1.15;;
67554;SDS011;54385;53.516;49.456;2023-07-20T10:36:32;2.85;;;1.02;;
67554;SDS011;54385;53.516;49.456;2023-07-20T10:39:13;2.05;;;0.98;;
67554;SDS011;54385;53.516;49.456;2023-07-20T10:42:11;2.85;;;1.05;;
67554;SDS011;54385;53.516;49.456;2023-07-20T10:44:41;1.90;;;1.00;;
67554;SDS011;54385;53.516;49.456;2023-07-20T10:47:12;2.30;;;1.00;;
67554;SDS011;54385;53.516;49.456;2023-07-20T10:49:58;2.30;;;1.10;;
67554;SDS011;54385;53.516;49.456;2023-07-20T10:52:39;1.85;;;1.20;;
67554;SDS011;54385;53.516;49.456;2023-07-20T10:55:15;2.30;;;0.88;;
67554;SDS011;54385;53.516;49.456;2023-07-20T10:57:44;1.63;;;0.98;;
67554;SDS011;54385;53.516;49.456;2023-07-20T11:00:38;2.50;;;0.90;;
67554;SDS011;54385;53.516;49.456;2023-07-20T11:03:27;2.40;;;1.10;;
67554;SDS011;54385;53.516;49.456;2023-07-20T11:05:58;3.47;;;0.88;;
67554;SDS011;54385;53.516;49.456;2023-07-20T11:08:38;2.72;;;1.00;;
67554;SDS011;54385;53.516;49.456;2023-07-20T11:11:25;2.70;;;0.98;;
67554;SDS011;54385;53.516;49.456;2023-07-20T11:13:56;2.55;;;0.90;;
67554;SDS011;54385;53.516;49.456;2023-07-20T11:16:41;2.13;;;1.30;;
67554;SDS011;54385;53.516;49.456;2023-07-20T11:19:18;2.28;;;1.00;;
67554;SDS011;54385;53.516;49.456;2023-07-20T11:21:56;2.35;;;0.88;;
67554;SDS011;54385;53.516;49.456;2023-07-20T11:24:39;2.42;;;0.88;;
67554;SDS011;54385;53.516;49.456;2023-07-20T11:27:25;0.82;;;0.65;;
67554;SDS011;54385;53.516;49.456;2023-07-20T11:30:02;1.92;;;0.90;;
67554;SDS011;54385;53.516;49.456;2023-07-20T11:32:29;2.10;;;0.85;;
67554;SDS011;54385;53.516;49.456;2023-07-20T11:34:56;2.90;;;0.82;;
67554;SDS011;54385;53.516;49.456;2023-07-20T11:37:23;2.30;;;0.80;;
67554;SDS011;54385;53.516;49.456;2023-07-20T11:39:54;1.40;;;1.08;;
67554;SDS011;54385;53.516;49.456;2023-07-20T11:42:26;1.33;;;0.70;;
67554;SDS011;54385;53.516;49.456;2023-07-20T11:44:57;2.25;;;0.80;;
67554;SDS011;54385;53.516;49.456;2023-07-20T11:47:34;2.28;;;1.00;;
67554;SDS011;54385;53.516;49.456;2023-07-20T11:50:13;1.77;;;0.80;;
67554;SDS011;54385;53.516;49.456;2023-07-20T11:52:41;1.67;;;1.00;;
67554;SDS011;54385;53.516;49.456;2023-07-20T11:55:20;3.60;;;0.80;;
67554;SDS011;54385;53.516;49.456;2023-07-20T11:58:12;1.60;;;0.90;;
67554;SDS011;54385;53.516;49.456;2023-07-20T12:00:58;2.28;;;0.90;;
67554;SDS011;54385;53.516;49.456;2023-07-20T12:03:31;2.42;;;0.80;;
67554;SDS011;54385;53.516;49.456;2023-07-20T12:06:06;2.28;;;0.77;;
67554;SDS011;54385;53.516;49.456;2023-07-20T12:08:46;1.33;;;0.85;;
67554;SDS011;54385;53.516;49.456;2023-07-20T12:11:57;1.50;;;0.70;;
67554;SDS011;54385;53.516;49.456;2023-07-20T12:14:24;1.67;;;0.77;;
67554;SDS011;54385;53.516;49.456;2023-07-20T12:17:10;1.52;;;0.85;;
67554;SDS011;54385;53.516;49.456;2023-07-20T12:19:49;1.60;;;0.80;;
67554;SDS011;54385;53.516;49.456;2023-07-20T12:22:15;2.05;;;0.93;;
67554;SDS011;54385;53.516;49.456;2023-07-20T12:24:42;1.13;;;0.73;;
67554;SDS011;54385;53.516;49.456;2023-07-20T12:27:08;1.95;;;0.88;;
67554;SDS011;54385;53.516;49.456;2023-07-20T12:32:09;1.85;;;0.80;;
67554;SDS011;54385;53.516;49.456;2023-07-20T12:34:39;1.63;;;0.82;;
67554;SDS011;54385;53.516;49.456;2023-07-20T12:37:05;1.85;;;0.82;;
67554;SDS011;54385;53.516;49.456;2023-07-20T12:39:33;1.50;;;0.80;;
67554;SDS011;54385;53.516;49.456;2023-07-20T12:42:00;1.10;;;0.77;;
67554;SDS011;54385;53.516;49.456;2023-07-20T12:44:26;2.30;;;0.80;;
67554;SDS011;54385;53.516;49.456;2023-07-20T12:46:53;1.23;;;0.80;;
67554;SDS011;54385;53.516;49.456;2023-07-20T12:49:20;1.75;;;0.80;;
67554;SDS011;54385;53.516;49.456;2023-07-20T12:51:47;2.35;;;0.85;;
67554;SDS011;54385;53.516;49.456;2023-07-20T12:54:14;1.92;;;0.90;;
67554;SDS011;54385;53.516;49.456;2023-07-20T12:56:40;1.23;;;0.82;;
67554;SDS011;54385;53.516;49.456;2023-07-20T12:59:07;2.28;;;0.80;;
67554;SDS011;54385;53.516;49.456;2023-07-20T13:01:34;1.08;;;0.65;;
67554;SDS011;54385;53.516;49.456;2023-07-20T13:04:01;1.90;;;0.73;;
67554;SDS011;54385;53.516;49.456;2023-07-20T13:06:27;1.45;;;0.80;;
67554;SDS011;54385;53.516;49.456;2023-07-20T13:08:54;1.10;;;0.85;;
67554;SDS011;54385;53.516;49.456;2023-07-20T13:11:22;1.10;;;1.00;;
67554;SDS011;54385;53.516;49.456;2023-07-20T13:13:49;1.00;;;0.80;;
67554;SDS011;54385;53.516;49.456;2023-07-20T13:16:16;1.13;;;0.70;;
67554;SDS011;54385;53.516;49.456;2023-07-20T13:18:43;1.38;;;0.82;;
67554;SDS011;54385;53.516;49.456;2023-07-20T13:21:09;2.58;;;0.77;;
67554;SDS011;54385;53.516;49.456;2023-07-20T13:23:38;0.82;;;0.60;;
67554;SDS011;54385;53.516;49.456;2023-07-20T13:26:07;2.28;;;0.80;;
67554;SDS011;54385;53.516;49.456;2023-07-20T13:28:35;2.08;;;0.70;;
67554;SDS011;54385;53.516;49.456;2023-07-20T13:31:01;0.90;;;0.80;;
67554;SDS011;54385;53.516;49.456;2023-07-20T13:33:28;1.85;;;0.80;;
67554;SDS011;54385;53.516;49.456;2023-07-20T13:35:55;2.80;;;0.90;;
67554;SDS011;54385;53.516;49.456;2023-07-20T13:38:22;1.75;;;0.77;;
67554;SDS011;54385;53.516;49.456;2023-07-20T13:40:49;1.05;;;0.82;;
67554;SDS011;54385;53.516;49.456;2023-07-20T13:43:15;1.30;;;0.77;;
67554;SDS011;54385;53.516;49.456;2023-07-20T13:45:43;1.63;;;0.75;;
67554;SDS011;54385;53.516;49.456;2023-07-20T13:48:09;1.42;;;0.77;;
67554;SDS011;54385;53.516;49.456;2023-07-20T13:50:36;1.73;;;0.80;;
67554;SDS011;54385;53.516;49.456;2023-07-20T13:53:03;1.40;;;0.88;;
67554;SDS011;54385;53.516;49.456;2023-07-20T13:55:30;1.55;;;0.93;;
67554;SDS011;54385;53.516;49.456;2023-07-20T13:57:59;1.67;;;0.75;;
67554;SDS011;54385;53.516;49.456;2023-07-20T14:00:26;1.83;;;0.77;;
67554;SDS011;54385;53.516;49.456;2023-07-20T14:02:56;1.08;;;0.60;;
67554;SDS011;54385;53.516;49.456;2023-07-20T14:05:23;2.55;;;0.80;;
67554;SDS011;54385;53.516;49.456;2023-07-20T14:07:50;1.23;;;0.80;;
67554;SDS011;54385;53.516;49.456;2023-07-20T14:10:17;1.35;;;0.77;;
67554;SDS011;54385;53.516;49.456;2023-07-20T14:12:45;1.38;;;0.80;;
67554;SDS011;54385;53.516;49.456;2023-07-20T14:15:11;0.70;;;0.50;;
67554;SDS011;54385;53.516;49.456;2023-07-20T14:17:38;1.05;;;0.70;;
67554;SDS011;54385;53.516;49.456;2023-07-20T14:20:05;2.22;;;1.00;;
67554;SDS011;54385;53.516;49.456;2023-07-20T14:22:34;1.42;;;1.17;;
67554;SDS011;54385;53.516;49.456;2023-07-20T14:25:01;1.98;;;0.90;;
67554;SDS011;54385;53.516;49.456;2023-07-20T14:27:27;1.42;;;0.90;;
67554;SDS011;54385;53.516;49.456;2023-07-20T14:29:54;0.95;;;0.80;;
67554;SDS011;54385;53.516;49.456;2023-07-20T14:32:21;1.05;;;0.80;;
67554;SDS011;54385;53.516;49.456;2023-07-20T14:34:49;0.85;;;0.73;;
67554;SDS011;54385;53.516;49.456;2023-07-20T14:37:17;1.65;;;0.65;;
67554;SDS011;54385;53.516;49.456;2023-07-20T14:39:43;1.20;;;0.80;;
67554;SDS011;54385;53.516;49.456;2023-07-20T14:42:10;1.00;;;0.75;;
67554;SDS011;54385;53.516;49.456;2023-07-20T14:44:37;2.03;;;0.93;;
67554;SDS011;54385;53.516;49.456;2023-07-20T14:47:04;0.75;;;0.60;;
67554;SDS011;54385;53.516;49.456;2023-07-20T14:49:31;1.60;;;0.65;;
67554;SDS011;54385;53.516;49.456;2023-07-20T14:51:57;1.58;;;0.80;;
67554;SDS011;54385;53.516;49.456;2023-07-20T14:54:25;0.90;;;0.60;;
67554;SDS011;54385;53.516;49.456;2023-07-20T14:56:52;1.52;;;0.88;;
67554;SDS011;54385;53.516;49.456;2023-07-20T14:59:19;0.98;;;0.68;;
67554;SDS011;54385;53.516;49.456;2023-07-20T15:01:46;1.00;;;0.88;;
67554;SDS011;54385;53.516;49.456;2023-07-20T15:04:18;0.77;;;0.60;;
67554;SDS011;54385;53.516;49.456;2023-07-20T15:06:45;1.80;;;0.80;;
67554;SDS011;54385;53.516;49.456;2023-07-20T15:09:12;1.40;;;0.60;;